Time;durP1;ratioP1;P1;durP2;ratioP2;P2;SDS_P1;SDS_P2;PMS_P1;PMS_P2;Temp;Humidity;BMP_temperature;BMP_pressure;BME280_temperature;BME280_humidity;BME280_pressure;Samples;Min_cycle;Max_cycle;Signal;HPM_P1;HPM_P2
2023/03/09 00:01:31;;;;;;;90.90;65.37;;;4.00;99.90;;;;;;5090227;28;20256;-51
2023/03/09 00:04:01;;;;;;;103.93;92.77;;;4.00;99.90;;;;;;5090711;28;20247;-51
2023/03/09 00:06:29;;;;;;;140.17;88.13;;;4.00;99.90;;;;;;5090678;28;20222;-50
2023/03/09 00:08:58;;;;;;;108.57;77.07;;;4.00;99.90;;;;;;5090543;28;20699;-51
2023/03/09 00:11:26;;;;;;;228.20;129.40;;;4.00;99.90;;;;;;5090295;28;20228;-52
2023/03/09 00:13:54;;;;;;;116.13;104.20;;;4.00;99.90;;;;;;5090332;28;20259;-51
2023/03/09 00:16:25;;;;;;;115.40;89.63;;;4.00;99.90;;;;;;5090733;28;20240;-51
2023/03/09 00:18:56;;;;;;;311.60;128.97;;;4.00;99.90;;;;;;5090412;28;20211;-51
2023/03/09 00:21:36;;;;;;;159.43;126.77;;;3.90;99.90;;;;;;5090099;28;20292;-52
2023/03/09 00:24:05;;;;;;;79.17;61.63;;;4.00;99.90;;;;;;5090142;28;20211;-50
2023/03/09 00:26:34;;;;;;;174.27;124.23;;;4.00;99.90;;;;;;5090150;28;20241;-51
2023/03/09 00:29:02;;;;;;;213.17;134.30;;;4.10;99.90;;;;;;5090144;28;20217;-50
2023/03/09 00:31:30;;;;;;;101.30;90.57;;;4.00;99.90;;;;;;5089534;28;20244;-51
2023/03/09 00:33:59;;;;;;;81.47;72.93;;;4.00;99.90;;;;;;5089249;28;20238;-51
2023/03/09 00:36:27;;;;;;;66.67;59.37;;;4.00;99.90;;;;;;5090226;28;20209;-51
2023/03/09 00:38:57;;;;;;;218.87;106.90;;;4.00;99.90;;;;;;5090155;28;20287;-50
2023/03/09 00:41:28;;;;;;;149.60;126.67;;;4.10;99.90;;;;;;5089264;28;20224;-51
2023/03/09 00:43:56;;;;;;;142.83;126.57;;;4.00;99.90;;;;;;5090186;28;20206;-52
2023/03/09 00:46:24;;;;;;;122.03;97.60;;;4.00;99.90;;;;;;5089650;28;20206;-51
2023/03/09 00:48:52;;;;;;;192.73;120.20;;;4.10;99.90;;;;;;5089304;28;20206;-51
2023/03/09 00:51:21;;;;;;;97.67;87.03;;;4.10;99.90;;;;;;5089283;28;20228;-52
2023/03/09 00:53:49;;;;;;;270.37;130.57;;;4.10;99.90;;;;;;5089777;28;20210;-51
2023/03/09 00:56:19;;;;;;;127.70;89.87;;;4.10;99.90;;;;;;5089898;28;20306;-52
2023/03/09 00:58:48;;;;;;;123.90;104.47;;;4.00;99.90;;;;;;5089975;28;20299;-51
2023/03/09 01:01:17;;;;;;;197.23;83.80;;;4.10;99.90;;;;;;5089478;28;20234;-52
2023/03/09 01:03:45;;;;;;;110.07;85.00;;;4.10;99.90;;;;;;5103489;28;20211;-51
2023/03/09 01:06:14;;;;;;;237.53;133.07;;;4.10;99.90;;;;;;5088515;28;20215;-52
2023/03/09 01:08:45;;;;;;;304.37;136.60;;;4.10;99.90;;;;;;5088915;28;20235;-51
2023/03/09 01:11:15;;;;;;;356.27;148.73;;;4.00;99.90;;;;;;5092931;28;20237;-50
2023/03/09 01:13:43;;;;;;;432.53;179.07;;;4.00;99.90;;;;;;5106431;28;20727;-51
2023/03/09 01:16:11;;;;;;;150.33;82.33;;;3.90;99.90;;;;;;5095605;28;20282;-51
2023/03/09 01:18:39;;;;;;;55.80;43.33;;;3.90;99.90;;;;;;5109917;28;20215;-51
2023/03/09 01:21:08;;;;;;;88.37;71.03;;;4.00;99.90;;;;;;5097794;28;20989;-51
2023/03/09 01:23:37;;;;;;;96.70;82.87;;;4.00;99.90;;;;;;5089561;28;20337;-51
2023/03/09 01:26:08;;;;;;;54.50;38.13;;;4.00;99.90;;;;;;5102670;28;20662;-52
2023/03/09 01:28:36;;;;;;;83.60;65.50;;;4.00;99.90;;;;;;5105530;28;20287;-51
2023/03/09 01:31:08;;;;;;;188.10;108.97;;;4.10;99.90;;;;;;5101579;28;20224;-51
2023/03/09 01:33:36;;;;;;;67.93;55.33;;;4.10;99.90;;;;;;5109564;28;20192;-51
2023/03/09 01:36:05;;;;;;;71.13;56.73;;;4.00;99.90;;;;;;5109413;28;20731;-51
2023/03/09 01:38:34;;;;;;;123.77;85.33;;;4.00;99.90;;;;;;5095959;28;20221;-51
2023/03/09 01:41:02;;;;;;;112.53;91.03;;;4.10;99.90;;;;;;5099442;28;20235;-51
2023/03/09 01:43:39;;;;;;;88.07;65.13;;;4.10;99.90;;;;;;5105718;28;20231;-50
2023/03/09 01:46:40;;;;;;;113.13;102.10;;;4.10;99.90;;;;;;5113835;28;20260;-51
2023/03/09 01:49:13;;;;;;;177.53;160.07;;;4.00;99.90;;;;;;5085893;28;20211;-51
2023/03/09 01:51:47;;;;;;;115.77;104.77;;;4.10;99.90;;;;;;5113393;28;20283;-51
2023/03/09 01:54:19;;;;;;;141.53;126.63;;;4.00;99.90;;;;;;5086316;28;20235;-51
2023/03/09 01:56:52;;;;;;;108.87;89.33;;;4.00;99.90;;;;;;5113863;28;20290;-52
2023/03/09 01:59:24;;;;;;;88.30;79.70;;;4.00;99.90;;;;;;5102590;28;20826;-52
2023/03/09 02:01:52;;;;;;;92.57;83.47;;;4.00;99.90;;;;;;5113476;28;20252;-52
2023/03/09 02:04:27;;;;;;;105.33;94.23;;;4.00;99.90;;;;;;5113307;28;20278;-51
2023/03/09 02:06:56;;;;;;;127.90;102.93;;;4.00;99.90;;;;;;5103462;28;20653;-51
2023/03/09 02:09:28;;;;;;;177.20;96.87;;;4.00;99.90;;;;;;5112394;28;20642;-51
2023/03/09 02:11:57;;;;;;;93.90;84.47;;;3.90;99.90;;;;;;5107500;28;20237;-51
2023/03/09 02:14:28;;;;;;;433.30;160.33;;;3.90;99.90;;;;;;5108926;28;20808;-52
2023/03/09 02:16:56;;;;;;;130.87;115.50;;;3.80;99.90;;;;;;5103182;28;20215;-52
2023/03/09 02:19:37;;;;;;;99.80;81.87;;;3.80;99.90;;;;;;5105376;28;20208;-51
2023/03/09 02:22:05;;;;;;;120.67;76.63;;;3.80;99.90;;;;;;5113164;28;20314;-51
2023/03/09 02:24:44;;;;;;;1999.90;860.70;;;3.90;99.90;;;;;;5097944;28;20230;-51
2023/03/09 02:27:17;;;;;;;798.13;236.47;;;4.00;99.90;;;;;;5113061;28;20207;-50
2023/03/09 02:29:45;;;;;;;44.47;34.57;;;4.00;99.90;;;;;;5112700;28;20297;-51
2023/03/09 02:32:13;;;;;;;156.57;106.70;;;4.00;99.90;;;;;;5110883;28;20246;-51
2023/03/09 02:34:41;;;;;;;177.80;115.20;;;4.00;99.90;;;;;;5112795;28;20298;-51
2023/03/09 02:37:26;;;;;;;153.00;102.97;;;4.10;99.90;;;;;;5103076;28;20210;-51
2023/03/09 02:39:57;;;;;;;1220.00;320.47;;;4.10;99.90;;;;;;5111033;28;20298;-51
2023/03/09 02:42:28;;;;;;;95.70;73.27;;;4.10;99.90;;;;;;5112571;28;20233;-51
2023/03/09 02:44:58;;;;;;;142.03;123.63;;;4.10;99.90;;;;;;5112804;28;20223;-51
2023/03/09 02:47:26;;;;;;;73.17;65.47;;;4.10;99.90;;;;;;5112546;28;20215;-51
2023/03/09 02:49:54;;;;;;;95.00;70.20;;;4.10;99.90;;;;;;5112577;28;20218;-51
2023/03/09 02:52:22;;;;;;;97.63;79.23;;;4.10;99.90;;;;;;5112257;28;20231;-51
2023/03/09 02:54:50;;;;;;;63.80;46.40;;;4.10;99.90;;;;;;5112136;28;20250;-51
2023/03/09 02:57:18;;;;;;;86.53;64.80;;;4.10;99.90;;;;;;5111616;28;20953;-51
2023/03/09 02:59:47;;;;;;;113.77;86.50;;;4.00;99.90;;;;;;5112132;28;20204;-50
2023/03/09 03:02:15;;;;;;;106.67;74.10;;;4.00;99.90;;;;;;5111996;28;20721;-51
2023/03/09 03:04:43;;;;;;;94.13;69.90;;;4.10;99.90;;;;;;5112081;28;20579;-51
2023/03/09 03:07:12;;;;;;;100.70;73.70;;;4.00;99.90;;;;;;5112145;28;20206;-50
2023/03/09 03:09:39;;;;;;;90.47;81.43;;;4.10;99.90;;;;;;5111163;28;20217;-51
2023/03/09 03:12:08;;;;;;;177.37;109.00;;;4.10;99.90;;;;;;5111415;28;20276;-51
2023/03/09 03:14:36;;;;;;;103.87;87.57;;;4.10;99.90;;;;;;5097332;28;20204;-52
2023/03/09 03:17:05;;;;;;;121.50;90.37;;;4.10;99.90;;;;;;5103809;28;20205;-52
2023/03/09 03:19:33;;;;;;;95.87;86.93;;;4.00;99.90;;;;;;5111719;28;20213;-51
2023/03/09 03:22:01;;;;;;;127.37;95.37;;;4.00;99.90;;;;;;5101370;28;20619;-51
2023/03/09 03:24:30;;;;;;;170.03;121.23;;;4.00;99.90;;;;;;5108411;28;20400;-50
2023/03/09 03:26:58;;;;;;;100.53;87.20;;;4.10;99.90;;;;;;5104030;28;20299;-50
2023/03/09 03:29:26;;;;;;;92.70;56.27;;;4.10;99.90;;;;;;5111722;28;20227;-52
2023/03/09 03:31:54;;;;;;;65.97;57.57;;;4.20;99.90;;;;;;5111523;28;20233;-51
2023/03/09 03:34:23;;;;;;;92.97;82.80;;;4.20;99.90;;;;;;5112016;28;20221;-51
2023/03/09 03:36:51;;;;;;;120.43;103.00;;;4.10;99.90;;;;;;5083891;28;20214;-51
2023/03/09 03:39:19;;;;;;;103.03;78.57;;;4.20;99.90;;;;;;5109024;28;20235;-51
2023/03/09 03:41:47;;;;;;;82.33;73.30;;;4.10;99.90;;;;;;5111491;28;20311;-49
2023/03/09 03:44:16;;;;;;;83.10;61.57;;;4.20;99.90;;;;;;5111442;28;20292;-51
2023/03/09 03:46:44;;;;;;;85.53;75.50;;;4.20;99.90;;;;;;5107523;28;20294;-50
2023/03/09 03:49:12;;;;;;;44.60;32.80;;;4.20;99.90;;;;;;5111366;28;20624;-51
2023/03/09 03:51:41;;;;;;;44.50;36.77;;;4.20;99.90;;;;;;5099069;28;20257;-51
2023/03/09 03:54:09;;;;;;;113.07;65.33;;;4.20;99.90;;;;;;5111557;28;20206;-50
2023/03/09 03:56:37;;;;;;;134.03;103.83;;;4.10;99.90;;;;;;5105886;28;20752;-51
2023/03/09 03:59:05;;;;;;;88.37;78.87;;;4.10;99.90;;;;;;5111078;28;20220;-51
2023/03/09 04:01:35;;;;;;;60.70;44.60;;;4.10;99.90;;;;;;5110754;28;20316;-51
2023/03/09 04:04:03;;;;;;;82.17;63.33;;;4.10;99.90;;;;;;5096727;28;20310;-51
2023/03/09 04:06:32;;;;;;;99.37;68.23;;;4.10;99.90;;;;;;5110606;28;20666;-51
2023/03/09 04:09:01;;;;;;;82.47;67.13;;;4.20;99.90;;;;;;5111340;28;20208;-51
2023/03/09 04:11:29;;;;;;;97.83;75.43;;;4.10;99.90;;;;;;5110568;28;20678;-51
2023/03/09 04:13:57;;;;;;;109.30;98.37;;;4.10;99.90;;;;;;5110830;28;20674;-52
2023/03/09 04:16:25;;;;;;;226.53;112.00;;;4.00;99.90;;;;;;5082530;28;20241;-52
2023/03/09 04:18:53;;;;;;;93.30;78.43;;;4.00;99.90;;;;;;5110947;28;20241;-50
2023/03/09 04:21:21;;;;;;;94.73;85.10;;;4.00;99.90;;;;;;5097316;28;20311;-50
2023/03/09 04:23:50;;;;;;;99.93;80.50;;;4.00;99.90;;;;;;5099227;28;20320;-51
2023/03/09 04:26:19;;;;;;;165.57;110.37;;;4.00;99.90;;;;;;5107633;28;20234;-52
2023/03/09 04:28:47;;;;;;;180.53;122.03;;;4.00;99.90;;;;;;5110737;28;20286;-51
2023/03/09 04:31:15;;;;;;;148.57;113.07;;;4.00;99.90;;;;;;5110208;28;20690;-51
2023/03/09 04:33:43;;;;;;;133.57;100.63;;;4.00;99.90;;;;;;5102524;28;20662;-51
2023/03/09 04:36:12;;;;;;;96.77;77.60;;;4.00;99.90;;;;;;5110454;28;20203;-51
2023/03/09 04:38:40;;;;;;;117.60;88.23;;;3.90;99.90;;;;;;5110380;28;20210;-51
2023/03/09 04:41:10;;;;;;;132.00;113.07;;;3.90;99.90;;;;;;5101617;28;20237;-52
2023/03/09 04:43:39;;;;;;;129.67;88.87;;;4.00;99.90;;;;;;5082135;28;20317;-52
2023/03/09 04:46:08;;;;;;;146.83;131.20;;;4.00;99.90;;;;;;5110370;28;20306;-51
2023/03/09 04:48:37;;;;;;;145.73;97.33;;;4.00;99.90;;;;;;5109058;28;20254;-52
2023/03/09 04:51:05;;;;;;;107.57;95.97;;;4.00;99.90;;;;;;5100786;28;20307;-51
2023/03/09 04:53:33;;;;;;;171.37;99.97;;;4.00;99.90;;;;;;5106034;28;20215;-51
2023/03/09 04:56:01;;;;;;;93.37;83.17;;;3.90;99.90;;;;;;5110424;28;20325;-52
2023/03/09 04:58:29;;;;;;;80.33;63.53;;;4.00;99.90;;;;;;5109906;28;20322;-52
2023/03/09 05:01:00;;;;;;;99.77;81.93;;;4.00;99.90;;;;;;5109638;28;20324;-51
2023/03/09 05:03:28;;;;;;;104.47;93.40;;;4.00;99.90;;;;;;5105111;28;20234;-51
2023/03/09 05:05:56;;;;;;;88.53;74.83;;;4.00;99.90;;;;;;5109945;28;20287;-51
2023/03/09 05:08:24;;;;;;;204.37;130.13;;;4.10;99.90;;;;;;5109997;28;20203;-53
2023/03/09 05:10:52;;;;;;;88.13;61.93;;;4.00;99.90;;;;;;5109559;28;20230;-50
2023/03/09 05:13:20;;;;;;;73.60;54.40;;;4.00;99.90;;;;;;5109996;28;20238;-51
2023/03/09 05:15:48;;;;;;;251.07;108.97;;;4.10;99.90;;;;;;5091454;28;20289;-51
2023/03/09 05:18:18;;;;;;;216.53;113.27;;;4.10;99.90;;;;;;5109538;28;20299;-51
2023/03/09 05:20:46;;;;;;;128.27;112.47;;;4.10;99.90;;;;;;5109401;28;20304;-52
2023/03/09 05:23:14;;;;;;;212.20;92.80;;;4.10;99.90;;;;;;5081583;28;20808;-52
2023/03/09 05:25:42;;;;;;;103.87;79.43;;;4.10;99.90;;;;;;5109342;28;20306;-51
2023/03/09 05:28:12;;;;;;;81.47;53.03;;;4.10;99.90;;;;;;5096894;28;20294;-51
2023/03/09 05:30:41;;;;;;;229.53;132.70;;;4.10;99.90;;;;;;5105887;28;20299;-51
2023/03/09 05:33:09;;;;;;;148.00;97.07;;;4.10;99.90;;;;;;5107353;28;20206;-51
2023/03/09 05:35:39;;;;;;;177.03;106.13;;;4.10;99.90;;;;;;5099386;28;20615;-51
2023/03/09 05:38:07;;;;;;;76.53;63.40;;;4.10;99.90;;;;;;5105952;28;20207;-52
2023/03/09 05:40:35;;;;;;;80.57;68.30;;;4.10;99.90;;;;;;5099995;28;20205;-52
2023/03/09 05:43:03;;;;;;;194.87;113.57;;;4.10;99.90;;;;;;5104779;28;20294;-51
2023/03/09 05:45:31;;;;;;;72.63;58.87;;;4.10;99.90;;;;;;5109428;28;20271;-52
2023/03/09 05:47:59;;;;;;;80.43;71.87;;;4.20;99.90;;;;;;5109696;28;20299;-50
2023/03/09 05:50:27;;;;;;;59.40;52.87;;;4.20;99.90;;;;;;5109451;28;20623;-51
2023/03/09 05:52:57;;;;;;;106.97;95.33;;;4.10;99.90;;;;;;5107144;28;20262;-51
2023/03/09 05:55:28;;;;;;;71.90;47.50;;;4.20;99.90;;;;;;5107839;28;20201;-51
2023/03/09 05:57:56;;;;;;;95.60;75.53;;;4.20;99.90;;;;;;5101318;28;20686;-51
2023/03/09 06:00:24;;;;;;;93.87;75.40;;;4.10;99.90;;;;;;5105024;28;20304;-51
2023/03/09 06:02:52;;;;;;;472.57;196.73;;;4.00;99.90;;;;;;5109033;28;20309;-52
2023/03/09 06:05:21;;;;;;;88.93;68.47;;;4.00;99.90;;;;;;5097427;28;20235;-52
2023/03/09 06:07:51;;;;;;;115.57;93.50;;;4.00;99.90;;;;;;5109259;28;20233;-51
2023/03/09 06:10:20;;;;;;;114.33;102.80;;;4.00;99.90;;;;;;5100372;28;20287;-52
2023/03/09 06:12:48;;;;;;;149.20;123.30;;;4.00;99.90;;;;;;5101949;28;20731;-51
2023/03/09 06:15:16;;;;;;;139.43;124.47;;;4.00;99.90;;;;;;5092821;28;20212;-52
2023/03/09 06:17:44;;;;;;;114.83;96.23;;;4.10;99.90;;;;;;5106025;28;20629;-51
2023/03/09 06:20:12;;;;;;;129.10;105.77;;;4.10;99.90;;;;;;5109000;28;20246;-51
2023/03/09 06:22:43;;;;;;;194.73;151.97;;;4.10;99.90;;;;;;5108632;28;20652;-51
2023/03/09 06:25:11;;;;;;;102.87;91.63;;;4.10;99.90;;;;;;5109145;28;20264;-51
2023/03/09 06:27:41;;;;;;;82.50;51.20;;;4.10;99.90;;;;;;5109127;28;20291;-51
2023/03/09 06:30:10;;;;;;;60.70;47.03;;;4.10;99.90;;;;;;5110035;28;20235;-51
2023/03/09 06:32:38;;;;;;;103.40;85.17;;;4.10;99.90;;;;;;5112606;28;20234;-51
2023/03/09 06:35:07;;;;;;;68.37;55.53;;;4.20;99.90;;;;;;5099766;28;20211;-51
2023/03/09 06:37:35;;;;;;;177.07;101.13;;;4.20;99.90;;;;;;5108357;28;20287;-51
2023/03/09 06:40:04;;;;;;;112.90;95.60;;;4.20;99.90;;;;;;5111281;28;20751;-52
2023/03/09 06:42:32;;;;;;;76.40;58.17;;;4.20;99.90;;;;;;5101475;28;20600;-51
2023/03/09 06:45:02;;;;;;;66.07;52.93;;;4.20;99.90;;;;;;5109796;28;20310;-52
2023/03/09 06:47:30;;;;;;;106.37;72.97;;;4.20;99.90;;;;;;5112433;28;20234;-52
2023/03/09 06:49:58;;;;;;;113.07;79.27;;;4.20;99.90;;;;;;5112257;28;20207;-51
2023/03/09 06:52:26;;;;;;;89.87;79.43;;;4.30;99.90;;;;;;5112541;28;20256;-51
2023/03/09 06:54:54;;;;;;;157.10;79.43;;;4.30;99.90;;;;;;5112555;28;20209;-51
2023/03/09 06:57:41;;;;;;;60.07;43.60;;;4.40;99.90;;;;;;5112746;28;20234;-50
2023/03/09 07:00:12;;;;;;;117.23;93.03;;;4.40;99.90;;;;;;5109819;28;20235;-51
2023/03/09 07:02:41;;;;;;;90.47;69.27;;;4.50;99.90;;;;;;5112591;28;20268;-51
2023/03/09 07:05:09;;;;;;;66.90;58.80;;;4.50;99.90;;;;;;5107531;28;20232;-51
2023/03/09 07:07:37;;;;;;;82.40;64.17;;;4.40;99.90;;;;;;5112664;28;20238;-51
2023/03/09 07:10:06;;;;;;;56.50;45.23;;;4.40;99.90;;;;;;5112211;28;20290;-50
2023/03/09 07:12:35;;;;;;;112.53;75.83;;;4.50;99.90;;;;;;5111997;28;20338;-51
2023/03/09 07:15:03;;;;;;;131.57;73.97;;;4.40;99.90;;;;;;5074926;28;21020;-51
2023/03/09 07:17:32;;;;;;;166.50;79.87;;;4.40;99.90;;;;;;5106933;28;20242;-51
2023/03/09 07:20:01;;;;;;;111.03;69.50;;;4.40;99.90;;;;;;5112288;28;20210;-51
2023/03/09 07:22:29;;;;;;;77.53;56.83;;;4.50;99.90;;;;;;5111634;28;20232;-51
2023/03/09 07:24:57;;;;;;;91.40;80.87;;;4.50;99.90;;;;;;5112034;28;20316;-50
2023/03/09 07:27:25;;;;;;;82.53;59.20;;;4.50;99.90;;;;;;5098989;28;20236;-51
2023/03/09 07:29:53;;;;;;;304.93;120.27;;;4.50;99.90;;;;;;5110871;28;20212;-51
2023/03/09 07:32:21;;;;;;;131.83;91.17;;;4.60;99.90;;;;;;5112072;28;20311;-51
2023/03/09 07:34:50;;;;;;;112.37;61.83;;;4.50;99.90;;;;;;5111995;28;20237;-50
2023/03/09 07:37:18;;;;;;;97.83;62.33;;;4.60;99.90;;;;;;5111976;28;20214;-50
2023/03/09 07:39:46;;;;;;;177.87;92.17;;;4.60;99.90;;;;;;5110536;28;20299;-51
2023/03/09 07:42:14;;;;;;;102.83;69.93;;;4.60;99.90;;;;;;5099850;28;20720;-52
2023/03/09 07:45:00;;;;;;;169.93;119.27;;;4.70;99.90;;;;;;5105159;28;20204;-51
2023/03/09 07:47:29;;;;;;;107.60;80.73;;;4.70;99.90;;;;;;5111809;28;20297;-51
2023/03/09 07:49:59;;;;;;;121.50;69.23;;;4.70;99.90;;;;;;5110472;28;20203;-51
2023/03/09 07:52:30;;;;;;;101.53;86.90;;;4.80;99.90;;;;;;5111387;28;20254;-51
2023/03/09 07:54:58;;;;;;;97.00;65.23;;;4.80;99.90;;;;;;5111624;28;20242;-51
2023/03/09 07:57:31;;;;;;;159.77;66.53;;;4.80;99.90;;;;;;5111295;28;20413;-51
2023/03/09 07:59:59;;;;;;;154.60;76.73;;;4.90;99.90;;;;;;5111318;28;20219;-51
2023/03/09 08:02:28;;;;;;;86.63;60.33;;;5.00;99.90;;;;;;5110958;28;20307;-52
2023/03/09 08:04:56;;;;;;;162.27;65.93;;;5.10;99.90;;;;;;5076801;28;20300;-51
2023/03/09 08:07:25;;;;;;;208.53;104.13;;;5.20;99.90;;;;;;5110435;28;20200;-50
2023/03/09 08:09:53;;;;;;;435.40;155.67;;;5.30;99.90;;;;;;5102561;28;20233;-51
2023/03/09 08:12:21;;;;;;;327.50;124.80;;;5.40;99.90;;;;;;5108810;28;20316;-50
2023/03/09 08:14:49;;;;;;;100.37;59.90;;;5.40;99.90;;;;;;5103762;28;20327;-52
2023/03/09 08:17:18;;;;;;;186.70;79.80;;;5.50;99.90;;;;;;5103150;28;20212;-52
2023/03/09 08:19:46;;;;;;;132.83;91.17;;;5.60;99.90;;;;;;5100883;28;20203;-51
2023/03/09 08:22:16;;;;;;;441.37;147.40;;;5.60;99.90;;;;;;5110645;28;20313;-51
2023/03/09 08:24:46;;;;;;;55.50;48.47;;;5.60;99.90;;;;;;5110907;28;20200;-52
2023/03/09 08:27:14;;;;;;;102.53;73.87;;;5.70;99.90;;;;;;5107807;28;20224;-51
2023/03/09 08:29:41;;;;;;;153.13;74.17;;;5.70;99.90;;;;;;5110555;28;20207;-52
2023/03/09 08:32:10;;;;;;;74.27;53.70;;;5.80;99.90;;;;;;5100164;28;20284;-50
2023/03/09 08:34:39;;;;;;;124.03;66.20;;;5.90;99.90;;;;;;5106073;28;20580;-51
2023/03/09 08:37:07;;;;;;;372.20;143.83;;;5.90;99.90;;;;;;5110238;28;20932;-51
2023/03/09 08:39:35;;;;;;;110.60;49.10;;;5.90;99.90;;;;;;5109649;28;20247;-51
2023/03/09 08:42:04;;;;;;;273.90;106.03;;;5.90;99.90;;;;;;5109913;28;20783;-52
2023/03/09 08:44:33;;;;;;;392.77;124.23;;;6.00;99.90;;;;;;5104934;28;20682;-52
2023/03/09 08:47:01;;;;;;;134.20;61.83;;;6.10;99.90;;;;;;5105139;28;20258;-51
2023/03/09 08:49:29;;;;;;;295.43;128.10;;;6.20;99.90;;;;;;5102422;28;20573;-51
2023/03/09 08:51:57;;;;;;;463.57;169.97;;;6.30;99.90;;;;;;5103070;28;20255;-51
2023/03/09 08:54:25;;;;;;;229.07;79.43;;;6.30;99.90;;;;;;5109460;28;20289;-51
2023/03/09 08:56:53;;;;;;;364.87;118.20;;;6.30;99.90;;;;;;5095503;28;20234;-51
2023/03/09 08:59:22;;;;;;;196.03;74.47;;;6.30;99.90;;;;;;5109813;28;20301;-50
2023/03/09 09:01:50;;;;;;;144.87;77.43;;;6.30;99.90;;;;;;5109649;28;20258;-52
2023/03/09 09:04:19;;;;;;;242.73;85.03;;;6.40;99.90;;;;;;5108990;28;20622;-50
2023/03/09 09:06:47;;;;;;;148.17;70.67;;;6.30;99.90;;;;;;5109789;28;20312;-50
2023/03/09 09:09:15;;;;;;;578.67;167.67;;;6.30;99.90;;;;;;5109952;28;20203;-51
2023/03/09 09:11:43;;;;;;;78.37;47.70;;;6.40;99.90;;;;;;5085161;28;20305;-51
2023/03/09 09:14:10;;;;;;;119.67;70.07;;;6.40;99.90;;;;;;5097392;28;20728;-52
2023/03/09 09:16:40;;;;;;;260.40;104.73;;;6.50;99.90;;;;;;5097510;28;20227;-52
2023/03/09 09:19:08;;;;;;;899.73;319.67;;;6.50;99.90;;;;;;5109741;28;20228;-52
2023/03/09 09:21:37;;;;;;;452.03;164.40;;;6.40;99.90;;;;;;5101230;28;20238;-51
2023/03/09 09:24:06;;;;;;;613.60;191.00;;;6.50;99.90;;;;;;5103888;28;20272;-51
2023/03/09 09:26:34;;;;;;;195.03;97.43;;;6.60;99.90;;;;;;5109092;28;20222;-51
2023/03/09 09:29:04;;;;;;;461.10;166.07;;;6.70;99.90;;;;;;5109919;28;20310;-50
2023/03/09 09:31:33;;;;;;;362.33;119.53;;;7.00;99.90;;;;;;5109039;28;20258;-51
2023/03/09 09:34:02;;;;;;;311.77;100.00;;;7.10;99.90;;;;;;5106736;28;20937;-51
2023/03/09 09:36:30;;;;;;;318.90;104.17;;;7.30;99.90;;;;;;5109542;28;20321;-51
2023/03/09 09:38:58;;;;;;;380.03;131.83;;;7.30;99.90;;;;;;5109616;28;20203;-51
2023/03/09 09:41:31;;;;;;;233.10;109.60;;;7.20;99.90;;;;;;5105153;28;20250;-51
2023/03/09 09:44:02;;;;;;;461.90;198.93;;;7.30;99.90;;;;;;5109481;28;20297;-51
2023/03/09 09:46:31;;;;;;;499.67;185.17;;;7.30;99.90;;;;;;5109219;28;20712;-52
2023/03/09 09:49:03;;;;;;;55.23;40.27;;;7.40;99.90;;;;;;5109461;28;20261;-52
2023/03/09 09:51:56;;;;;;;770.20;303.07;;;7.40;99.90;;;;;;5103082;28;20215;-52
2023/03/09 09:54:35;;;;;;;226.03;95.70;;;7.50;99.90;;;;;;5100002;28;20300;-51
2023/03/09 09:57:09;;;;;;;324.00;88.97;;;7.60;99.90;;;;;;5107957;28;20282;-51
2023/03/09 09:59:42;;;;;;;382.10;172.67;;;7.60;99.90;;;;;;5109439;28;20241;-49
2023/03/09 10:02:36;;;;;;;551.50;161.13;;;7.70;99.90;;;;;;5103140;28;20324;-52
2023/03/09 10:05:13;;;;;;;282.57;134.60;;;7.70;99.90;;;;;;5084300;28;20208;-51
2023/03/09 10:07:42;;;;;;;1343.83;400.07;;;7.70;99.90;;;;;;5092357;28;20251;-51
2023/03/09 10:10:18;;;;;;;311.77;105.03;;;7.80;99.90;;;;;;5092823;28;20640;-51
2023/03/09 10:12:46;;;;;;;1240.70;392.70;;;7.80;99.90;;;;;;5092193;28;20231;-50
2023/03/09 10:15:21;;;;;;;462.30;189.10;;;7.80;99.90;;;;;;5092806;28;20212;-52
2023/03/09 10:17:54;;;;;;;744.43;242.23;;;7.90;99.90;;;;;;5111004;28;20233;-51
2023/03/09 10:20:30;;;;;;;75.53;53.10;;;7.90;99.90;;;;;;5104537;28;20260;-52
2023/03/09 10:22:59;;;;;;;650.17;220.80;;;8.00;99.90;;;;;;5095786;28;20727;-51
2023/03/09 10:25:32;;;;;;;692.47;187.67;;;8.00;99.90;;;;;;5102908;28;20200;-51
2023/03/09 10:28:06;;;;;;;781.90;166.63;;;7.90;99.90;;;;;;5112535;28;20265;-52
2023/03/09 10:30:42;;;;;;;531.80;133.53;;;7.90;99.90;;;;;;5112484;28;20215;-52
2023/03/09 10:33:16;;;;;;;642.30;134.87;;;7.90;99.90;;;;;;5112654;28;20207;-51
2023/03/09 10:35:55;;;;;;;676.93;179.90;;;8.00;99.90;;;;;;5112834;28;20221;-51
2023/03/09 10:38:23;;;;;;;395.70;98.27;;;8.00;99.90;;;;;;5112538;28;20253;-51
2023/03/09 10:40:53;;;;;;;429.57;136.27;;;8.00;99.90;;;;;;5109396;28;20323;-52
2023/03/09 10:43:25;;;;;;;1222.07;354.27;;;8.00;99.90;;;;;;5112643;28;20195;-51
2023/03/09 10:45:53;;;;;;;1999.90;596.23;;;8.00;99.90;;;;;;5112665;28;20207;-51
2023/03/09 10:48:23;;;;;;;1990.23;568.90;;;7.90;99.90;;;;;;5108261;28;20207;-50
2023/03/09 10:51:01;;;;;;;1867.23;503.83;;;7.90;99.90;;;;;;5112146;28;20210;-51
2023/03/09 10:53:35;;;;;;;436.53;125.20;;;7.90;99.90;;;;;;5112331;28;20200;-51
2023/03/09 10:56:14;;;;;;;1154.33;249.23;;;7.90;99.90;;;;;;5111151;28;20290;-51
2023/03/09 10:58:42;;;;;;;1071.97;334.93;;;8.00;99.90;;;;;;5110241;28;20633;-52
2023/03/09 11:01:27;;;;;;;565.07;147.10;;;8.00;99.90;;;;;;5111772;28;20306;-52
2023/03/09 11:03:55;;;;;;;215.23;96.00;;;8.10;99.90;;;;;;5112329;28;20203;-51
2023/03/09 11:06:29;;;;;;;1100.03;151.47;;;8.20;99.90;;;;;;5107124;28;20204;-51
2023/03/09 11:09:04;;;;;;;750.73;139.37;;;8.10;99.90;;;;;;5111253;28;20265;-51
2023/03/09 11:11:45;;;;;;;1999.90;329.90;;;8.20;99.90;;;;;;5111770;28;20231;-51
2023/03/09 11:14:23;;;;;;;1975.90;345.67;;;8.30;99.90;;;;;;5110051;28;20314;-51
2023/03/09 11:16:55;;;;;;;1640.83;288.87;;;8.40;99.90;;;;;;5099957;28;20237;-51
2023/03/09 11:19:23;;;;;;;1366.17;327.57;;;8.50;99.90;;;;;;5106199;28;20250;-50
2023/03/09 11:22:00;;;;;;;1815.30;337.20;;;8.60;99.90;;;;;;5092597;28;20271;-51
2023/03/09 11:24:35;;;;;;;305.57;73.63;;;8.70;99.90;;;;;;5106357;28;20830;-51
2023/03/09 11:27:07;;;;;;;397.33;107.57;;;8.80;99.90;;;;;;5090570;28;20211;-51
2023/03/09 11:29:42;;;;;;;1999.90;447.17;;;8.80;99.90;;;;;;5111138;28;20297;-52
2023/03/09 11:32:12;;;;;;;337.43;90.30;;;9.00;99.90;;;;;;5089070;28;20659;-50
2023/03/09 11:34:42;;;;;;;512.30;98.83;;;9.00;99.90;;;;;;5091506;28;20215;-51
2023/03/09 11:37:16;;;;;;;425.50;131.73;;;8.90;99.90;;;;;;5091284;28;20205;-52
2023/03/09 11:39:50;;;;;;;940.13;217.77;;;8.80;99.90;;;;;;5090783;28;20203;-51
2023/03/09 11:42:25;;;;;;;375.27;86.73;;;8.70;99.90;;;;;;5090883;28;20220;-51
2023/03/09 11:44:53;;;;;;;264.97;89.87;;;8.60;99.90;;;;;;5090125;28;20203;-52
2023/03/09 11:47:29;;;;;;;503.27;125.33;;;8.60;99.90;;;;;;5090661;28;20247;-51
2023/03/09 11:50:00;;;;;;;1269.93;218.23;;;8.60;99.90;;;;;;5097823;28;20872;-51
2023/03/09 11:52:33;;;;;;;1999.90;529.67;;;8.60;99.90;;;;;;5103258;28;20260;-51
2023/03/09 11:55:08;;;;;;;1999.90;563.60;;;8.60;99.90;;;;;;5085618;28;20333;-51
2023/03/09 11:57:38;;;;;;;818.77;152.43;;;8.50;99.90;;;;;;5097713;28;20199;-51
2023/03/09 12:00:12;;;;;;;1737.80;245.43;;;8.50;99.90;;;;;;5098349;28;20287;-51
2023/03/09 12:02:56;;;;;;;87.20;38.40;;;8.80;99.90;;;;;;5076780;28;20226;-50
2023/03/09 12:05:27;;;;;;;1629.97;273.23;;;9.00;99.90;;;;;;5100355;28;20214;-51
2023/03/09 12:08:02;;;;;;;281.10;65.93;;;9.20;99.90;;;;;;5111285;28;20306;-51
2023/03/09 12:10:35;;;;;;;1739.20;259.43;;;9.20;99.90;;;;;;5110160;28;20214;-50
2023/03/09 12:13:09;;;;;;;1989.30;391.70;;;9.50;99.90;;;;;;5097594;28;20243;-51
2023/03/09 12:15:42;;;;;;;1999.90;548.73;;;9.40;99.90;;;;;;5107842;28;20289;-51
2023/03/09 12:18:19;;;;;;;1999.90;387.27;;;9.30;99.90;;;;;;5100310;28;20263;-51
2023/03/09 12:20:52;;;;;;;1999.90;864.60;;;9.20;99.90;;;;;;5096025;28;20327;-51
2023/03/09 12:23:47;;;;;;;1423.47;217.93;;;9.40;99.90;;;;;;5090191;28;20761;-51
2023/03/09 12:26:30;;;;;;;1113.87;211.03;;;9.30;99.90;;;;;;5097512;28;20236;-50
2023/03/09 12:29:07;;;;;;;1601.83;328.10;;;9.20;99.90;;;;;;5103536;28;20228;-51
2023/03/09 12:31:37;;;;;;;1999.90;581.07;;;9.20;99.90;;;;;;5110200;28;20590;-52
2023/03/09 12:34:27;;;;;;;1462.30;227.27;;;9.10;99.90;;;;;;5104061;28;20676;-52
2023/03/09 12:37:33;;;;;;;467.17;98.13;;;9.10;99.90;;;;;;5085383;28;20212;-51
2023/03/09 12:40:19;;;;;;;1988.03;370.73;;;9.20;99.90;;;;;;5107671;28;20293;-53